Time;durP1;ratioP1;P1;durP2;ratioP2;P2;SDS_P1;SDS_P2;PMS_P1;PMS_P2;Temp;Humidity;BMP_temperature;BMP_pressure;BME280_temperature;BME280_humidity;BME280_pressure;Samples;Min_cycle;Max_cycle;Signal;HPM_P1;HPM_P2
2022/06/11 00:02:00;;;;;;;;;;;;;;;-146.27;100.00;64033.13;5093017;28;20307;-46
2022/06/11 00:04:31;;;;;;;;;;;;;;;-146.27;100.00;64033.13;5092848;28;19912;-48
2022/06/11 00:07:00;;;;;;;;;;;;;;;-146.27;100.00;64033.13;5093117;28;19912;-49
2022/06/11 00:09:26;;;;;;;;;;;;;;;-146.27;100.00;64033.13;5092864;28;20295;-51
2022/06/11 00:11:52;;;;;;;;;;;;;;;-146.27;100.00;64033.13;5092458;28;19912;-49
2022/06/11 00:14:18;;;;;;;;;;;;;;;-146.27;100.00;64033.13;5092267;28;19916;-51
2022/06/11 00:16:44;;;;;;;;;;;;;;;-146.27;100.00;64033.13;5092569;28;19918;-49
2022/06/11 00:19:09;;;;;;;;;;;;;;;-146.27;100.00;64033.13;5092840;28;19995;-48
2022/06/11 00:21:36;;;;;;;;;;;;;;;-146.27;100.00;64033.13;5103295;28;20276;-50
2022/06/11 00:24:03;;;;;;;;;;;;;;;-146.27;100.00;64033.13;5112357;28;19912;-47
2022/06/11 00:26:28;;;;;;;;;;;;;;;-146.27;100.00;64033.13;5107279;28;19938;-44
2022/06/11 00:28:53;;;;;;;;;;;;;;;-146.27;100.00;64033.13;5092653;28;20578;-38
2022/06/11 00:31:19;;;;;;;;;;;;;;;-146.27;100.00;64033.13;5093680;28;20307;-37
2022/06/11 00:33:45;;;;;;;;;;;;;;;-146.27;100.00;64033.13;5092770;28;19927;-37
2022/06/11 00:36:10;;;;;;;;;;;;;;;-146.27;100.00;64033.13;5093068;28;19920;-37
2022/06/11 00:38:36;;;;;;;;;;;;;;;-146.27;100.00;64033.13;5093322;28;20033;-37
2022/06/11 00:41:02;;;;;;;;;;;;;;;-146.27;100.00;64033.13;5093488;28;19916;-37
2022/06/11 00:43:28;;;;;;;;;;;;;;;-146.27;100.00;64033.13;5092915;28;20280;-37
2022/06/11 00:46:12;;;;;;;;;;;;;;;-146.27;100.00;64033.13;5092740;28;19912;-38
2022/06/11 00:48:39;;;;;;;;;;;;;;;-146.27;100.00;64033.13;5093109;28;19923;-37
2022/06/11 00:51:05;;;;;;;;;;;;;;;-146.27;100.00;64033.13;5092680;28;19934;-37
2022/06/11 00:53:30;;;;;;;;;;;;;;;-146.27;100.00;64033.13;5092417;28;19916;-37
2022/06/11 00:55:55;;;;;;;;;;;;;;;-146.27;100.00;64033.13;5092086;28;19919;-38
2022/06/11 00:58:23;;;;;;;;;;;;;;;-146.27;100.00;64033.13;5091058;28;19916;-38
2022/06/11 01:00:53;;;;;;;;;;;;;;;-146.27;100.00;64033.13;5091843;28;20292;-38
2022/06/11 01:03:27;;;;;;;;;;;;;;;-146.27;100.00;64033.13;5091872;28;20019;-38
2022/06/11 01:06:10;;;;;;;;;;;;;;;-146.27;100.00;64033.13;5092094;28;19912;-38
2022/06/11 01:08:44;;;;;;;;;;;;;;;-146.27;100.00;64033.13;5092403;28;19966;-38
2022/06/11 01:11:33;;;;;;;;;;;;;;;-146.27;100.00;64033.13;5092519;28;19912;-37
2022/06/11 01:14:16;;;;;;;;;;;;;;;-146.27;100.00;64033.13;5072232;28;20006;-37
2022/06/11 01:16:50;;;;;;;;;;;;;;;-146.27;100.00;64033.13;5092346;28;19926;-38
2022/06/11 01:19:31;;;;;;;;;;;;;;;-146.27;100.00;64033.13;5092026;28;19916;-38
2022/06/11 01:21:57;;;;;;;;;;;;;;;-146.27;100.00;64033.13;5105763;28;19911;-38
2022/06/11 01:24:29;;;;;;;;;;;;;;;-146.27;100.00;64033.13;5112198;28;19912;-38
2022/06/11 01:27:01;;;;;;;;;;;;;;;-146.27;100.00;64033.13;5112409;28;19919;-38
2022/06/11 01:29:33;;;;;;;;;;;;;;;-146.27;100.00;64033.13;5111874;28;19912;-38
2022/06/11 01:32:18;;;;;;;;;;;;;;;-146.27;100.00;64033.13;5111985;28;19916;-38
2022/06/11 01:35:22;;;;;;;;;;;;;;;-146.27;100.00;64033.13;5112022;28;19927;-38
2022/06/11 01:37:53;;;;;;;;;;;;;;;-146.27;100.00;64033.13;5088794;28;19998;-51
2022/06/11 01:40:27;;;;;;;;;;;;;;;-146.27;100.00;64033.13;5068797;28;19917;-49
2022/06/11 01:42:58;;;;;;;;;;;;;;;-146.27;100.00;64033.13;5081330;28;19966;-52
2022/06/11 01:45:28;;;;;;;;;;;;;;;-146.27;100.00;64033.13;5091747;28;19916;-50
2022/06/11 01:47:54;;;;;;;;;;;;;;;-146.27;100.00;64033.13;5091587;28;19912;-51
2022/06/11 01:50:22;;;;;;;;;;;;;;;-146.27;100.00;64033.13;5091177;28;19918;-51
2022/06/11 01:53:06;;;;;;;;;;;;;;;-146.27;100.00;64033.13;5090942;28;19922;-51
2022/06/11 01:55:32;;;;;;;;;;;;;;;-146.27;100.00;64033.13;5091195;28;20003;-48
2022/06/11 01:58:15;;;;;;;;;;;;;;;-146.27;100.00;64033.13;5091540;28;20386;-51
2022/06/11 02:00:56;;;;;;;;;;;;;;;-146.27;100.00;64033.13;5090307;28;20287;-49
2022/06/11 02:03:26;;;;;;;;;;;;;;;-146.27;100.00;64033.13;5091753;28;19912;-50
2022/06/11 02:06:04;;;;;;;;;;;;;;;-146.27;100.00;64033.13;5091211;28;20022;-50
2022/06/11 02:08:45;;;;;;;;;;;;;;;-146.27;100.00;64033.13;5090667;28;19912;-47
2022/06/11 02:11:10;;;;;;;;;;;;;;;-146.27;100.00;64033.13;5090709;28;19920;-45
2022/06/11 02:13:39;;;;;;;;;;;;;;;-146.27;100.00;64033.13;5090749;28;19918;-48
2022/06/11 02:16:19;;;;;;;;;;;;;;;-146.27;100.00;64033.13;5090986;28;19916;-44
2022/06/11 02:18:47;;;;;;;;;;;;;;;-146.27;100.00;64033.13;5091338;28;19912;-46
2022/06/11 02:21:15;;;;;;;;;;;;;;;-146.27;100.00;64033.13;5099014;28;19912;-46
2022/06/11 02:23:43;;;;;;;;;;;;;;;-146.27;100.00;64033.13;5111649;28;19919;-47
2022/06/11 02:26:15;;;;;;;;;;;;;;;-146.27;100.00;64033.13;5111667;28;19922;-47
2022/06/11 02:28:43;;;;;;;;;;;;;;;-146.27;100.00;64033.13;5111471;28;19994;-48
2022/06/11 02:31:11;;;;;;;;;;;;;;;-146.27;100.00;64033.13;5111109;28;20006;-49
2022/06/11 02:33:37;;;;;;;;;;;;;;;-146.27;100.00;64033.13;5110684;28;19919;-47
2022/06/11 02:36:14;;;;;;;;;;;;;;;-146.27;100.00;64033.13;5111786;28;19919;-48
2022/06/11 02:38:40;;;;;;;;;;;;;;;-146.27;100.00;64033.13;5103936;28;20398;-49
2022/06/11 02:41:10;;;;;;;;;;;;;;;-146.27;100.00;64033.13;5091144;28;19923;-49
2022/06/11 02:43:36;;;;;;;;;;;;;;;-146.27;100.00;64033.13;5090506;28;19918;-49
2022/06/11 02:46:40;;;;;;;;;;;;;;;-146.27;100.00;64033.13;5091031;28;19912;-49
2022/06/11 02:48:48;;;;;;;;;;;;;;;-146.27;100.00;64033.13;5090878;28;19961;-49
2022/06/11 02:51:13;;;;;;;;;;;;;;;-146.27;100.00;64033.13;5090944;28;19943;-47
2022/06/11 02:53:38;;;;;;;;;;;;;;;-146.27;100.00;64033.13;5090808;28;19962;-49
2022/06/11 02:56:04;;;;;;;;;;;;;;;-146.27;100.00;64033.13;5090536;28;19982;-48
2022/06/11 02:58:29;;;;;;;;;;;;;;;-146.27;100.00;64033.13;5090793;28;19912;-47
2022/06/11 03:00:55;;;;;;;;;;;;;;;-146.27;100.00;64033.13;5090356;28;19999;-47
2022/06/11 03:03:22;;;;;;;;;;;;;;;-146.27;100.00;64033.13;5090943;28;19946;-47
2022/06/11 03:05:47;;;;;;;;;;;;;;;-146.27;100.00;64033.13;5090524;28;19919;-48
2022/06/11 03:08:12;;;;;;;;;;;;;;;-146.27;100.00;64033.13;5071057;28;19912;-51
2022/06/11 03:10:37;;;;;;;;;;;;;;;-146.27;100.00;64033.13;5070643;28;19916;-50
2022/06/11 03:13:03;;;;;;;;;;;;;;;-146.27;100.00;64033.13;5070791;28;20312;-49
2022/06/11 03:15:28;;;;;;;;;;;;;;;-146.27;100.00;64033.13;5070226;28;19932;-48
2022/06/11 03:17:54;;;;;;;;;;;;;;;-146.27;100.00;64033.13;5070877;28;20395;-49
2022/06/11 03:20:22;;;;;;;;;;;;;;;-146.27;100.00;64033.13;5071580;28;20006;-48
2022/06/11 03:22:49;;;;;;;;;;;;;;;-146.27;100.00;64033.13;5111710;28;19915;-50
2022/06/11 03:25:16;;;;;;;;;;;;;;;-146.27;100.00;64033.13;5114772;28;19912;-48
2022/06/11 03:27:41;;;;;;;;;;;;;;;-146.27;100.00;64033.13;5115143;28;19916;-50
2022/06/11 03:30:08;;;;;;;;;;;;;;;-146.27;100.00;64033.13;5113440;28;20414;-50
2022/06/11 03:32:34;;;;;;;;;;;;;;;-146.27;100.00;64033.13;5114188;28;19920;-48
2022/06/11 03:34:59;;;;;;;;;;;;;;;-146.27;100.00;64033.13;5114395;28;19920;-47
2022/06/11 03:37:25;;;;;;;;;;;;;;;-146.27;100.00;64033.13;5114375;28;19918;-47
2022/06/11 03:39:51;;;;;;;;;;;;;;;-146.27;100.00;64033.13;5097053;28;19985;-51
2022/06/11 03:42:17;;;;;;;;;;;;;;;-146.27;100.00;64033.13;5093810;28;19922;-48
2022/06/11 03:44:42;;;;;;;;;;;;;;;-146.27;100.00;64033.13;5094061;28;19916;-48
2022/06/11 03:47:08;;;;;;;;;;;;;;;-146.27;100.00;64033.13;5093842;28;19923;-49
2022/06/11 03:49:34;;;;;;;;;;;;;;;-146.27;100.00;64033.13;5093827;28;19951;-49
2022/06/11 03:52:00;;;;;;;;;;;;;;;-146.27;100.00;64033.13;5093774;28;20382;-48
2022/06/11 03:54:25;;;;;;;;;;;;;;;-146.27;100.00;64033.13;5093653;28;19945;-48
2022/06/11 03:56:51;;;;;;;;;;;;;;;-146.27;100.00;64033.13;5093438;28;19916;-51
2022/06/11 03:59:17;;;;;;;;;;;;;;;-146.27;100.00;64033.13;5093384;28;20376;-48
2022/06/11 04:01:43;;;;;;;;;;;;;;;-146.27;100.00;64033.13;5093743;28;19923;-46
2022/06/11 04:04:10;;;;;;;;;;;;;;;-146.27;100.00;64033.13;5093891;28;19978;-48
2022/06/11 04:06:37;;;;;;;;;;;;;;;-146.27;100.00;64033.13;5093933;28;20390;-46
2022/06/11 04:09:05;;;;;;;;;;;;;;;-146.27;100.00;64033.13;5093532;28;20419;-50
2022/06/11 04:11:30;;;;;;;;;;;;;;;-146.27;100.00;64033.13;5093846;28;19919;-46
2022/06/11 04:13:55;;;;;;;;;;;;;;;-146.27;100.00;64033.13;5093791;28;19912;-46
2022/06/11 04:16:23;;;;;;;;;;;;;;;-146.27;100.00;64033.13;5093810;28;19912;-48
2022/06/11 04:18:50;;;;;;;;;;;;;;;-146.27;100.00;64033.13;5093486;28;19912;-48
2022/06/11 04:21:16;;;;;;;;;;;;;;;-146.27;100.00;64033.13;5093689;28;19961;-37
2022/06/11 04:23:45;;;;;;;;;;;;;;;-146.27;100.00;64033.13;5093219;28;19912;-37
2022/06/11 04:26:12;;;;;;;;;;;;;;;-146.27;100.00;64033.13;5092187;28;19919;-37
2022/06/11 04:28:38;;;;;;;;;;;;;;;-146.27;100.00;64033.13;5093564;28;19912;-37
2022/06/11 04:31:04;;;;;;;;;;;;;;;-146.27;100.00;64033.13;5093411;28;19973;-37
2022/06/11 04:33:30;;;;;;;;;;;;;;;-146.27;100.00;64033.13;5093179;28;19950;-37
2022/06/11 04:35:55;;;;;;;;;;;;;;;-146.27;100.00;64033.13;5092506;28;19924;-37
2022/06/11 04:38:21;;;;;;;;;;;;;;;-146.27;100.00;64033.13;5092756;28;19912;-37
2022/06/11 04:40:47;;;;;;;;;;;;;;;-146.27;100.00;64033.13;5093209;28;20006;-37
2022/06/11 04:43:13;;;;;;;;;;;;;;;-146.27;100.00;64033.13;5093424;28;19919;-38
2022/06/11 04:45:38;;;;;;;;;;;;;;;-146.27;100.00;64033.13;5093134;28;19938;-37
2022/06/11 04:48:03;;;;;;;;;;;;;;;-146.27;100.00;64033.13;5093302;28;19912;-38
2022/06/11 04:50:29;;;;;;;;;;;;;;;-146.27;100.00;64033.13;5092966;28;19919;-37
2022/06/11 04:52:55;;;;;;;;;;;;;;;-146.27;100.00;64033.13;5092860;28;19923;-37
2022/06/11 04:55:20;;;;;;;;;;;;;;;-146.27;100.00;64033.13;5093276;28;19916;-38
2022/06/11 04:57:45;;;;;;;;;;;;;;;-146.27;100.00;64033.13;5092984;28;20388;-38
2022/06/11 05:00:13;;;;;;;;;;;;;;;-146.27;100.00;64033.13;5092844;28;20007;-38
2022/06/11 05:02:38;;;;;;;;;;;;;;;-146.27;100.00;64033.13;5092811;28;20371;-38
2022/06/11 05:05:04;;;;;;;;;;;;;;;-146.27;100.00;64033.13;5092952;28;19912;-38
2022/06/11 05:07:30;;;;;;;;;;;;;;;-146.27;100.00;64033.13;5092849;28;19912;-38
2022/06/11 05:09:55;;;;;;;;;;;;;;;-146.27;100.00;64033.13;5092466;28;19912;-38
2022/06/11 05:12:20;;;;;;;;;;;;;;;-146.27;100.00;64033.13;5092586;28;20359;-38
2022/06/11 05:14:45;;;;;;;;;;;;;;;-146.27;100.00;64033.13;5092854;28;20315;-38
2022/06/11 05:17:11;;;;;;;;;;;;;;;-146.27;100.00;64033.13;5092801;28;19912;-38
2022/06/11 05:19:36;;;;;;;;;;;;;;;-146.27;100.00;64033.13;5092679;28;20015;-38
2022/06/11 05:22:02;;;;;;;;;;;;;;;-146.27;100.00;64033.13;5092251;28;19912;-38
2022/06/11 05:24:29;;;;;;;;;;;;;;;-146.27;100.00;64033.13;5092632;28;19948;-38
2022/06/11 05:26:56;;;;;;;;;;;;;;;-146.27;100.00;64033.13;5092391;28;19947;-50
2022/06/11 05:29:25;;;;;;;;;;;;;;;-146.27;100.00;64033.13;5092608;28;20382;-50
2022/06/11 05:31:50;;;;;;;;;;;;;;;-146.27;100.00;64033.13;5092134;28;19935;-48
2022/06/11 05:34:16;;;;;;;;;;;;;;;-146.27;100.00;64033.13;5092154;28;19921;-47
2022/06/11 05:36:41;;;;;;;;;;;;;;;-146.27;100.00;64033.13;5092289;28;20303;-48
2022/06/11 05:39:06;;;;;;;;;;;;;;;-146.27;100.00;64033.13;5083710;28;19969;-49
2022/06/11 05:41:32;;;;;;;;;;;;;;;-146.27;100.00;64033.13;5076012;28;19917;-48
2022/06/11 05:43:57;;;;;;;;;;;;;;;-146.27;100.00;64033.13;5070444;28;19912;-47
2022/06/11 05:46:24;;;;;;;;;;;;;;;-146.27;100.00;64033.13;5071022;28;19987;-49
2022/06/11 05:48:53;;;;;;;;;;;;;;;-146.27;100.00;64033.13;5071072;28;20005;-50
2022/06/11 05:51:22;;;;;;;;;;;;;;;-146.27;100.00;64033.13;5070790;28;20400;-48
2022/06/11 05:53:49;;;;;;;;;;;;;;;-146.27;100.00;64033.13;5069547;28;19943;-47
2022/06/11 05:56:15;;;;;;;;;;;;;;;-146.27;100.00;64033.13;5068714;28;19947;-47
2022/06/11 05:58:43;;;;;;;;;;;;;;;-146.27;100.00;64033.13;5069127;28;20434;-49
2022/06/11 06:01:10;;;;;;;;;;;;;;;-146.27;100.00;64033.13;5069309;28;20042;-47
2022/06/11 06:03:35;;;;;;;;;;;;;;;-146.27;100.00;64033.13;5069716;28;19916;-48
2022/06/11 06:06:00;;;;;;;;;;;;;;;-146.27;100.00;64033.13;5068453;28;20006;-47
2022/06/11 06:08:25;;;;;;;;;;;;;;;-146.27;100.00;64033.13;5068749;28;19948;-48
2022/06/11 06:10:51;;;;;;;;;;;;;;;-146.27;100.00;64033.13;5068333;28;20003;-48
2022/06/11 06:16:00;;;;;;;;;;;;;;;-146.27;100.00;64033.13;5068411;28;19923;-47
2022/06/11 06:18:25;;;;;;;;;;;;;;;-146.27;100.00;64033.13;5068749;28;19916;-48
2022/06/11 06:20:51;;;;;;;;;;;;;;;-146.27;100.00;64033.13;5079697;28;19974;-47
2022/06/11 06:23:16;;;;;;;;;;;;;;;-146.27;100.00;64033.13;5110472;28;19912;-47
2022/06/11 06:25:41;;;;;;;;;;;;;;;-146.27;100.00;64033.13;5110704;28;19916;-47
2022/06/11 06:28:07;;;;;;;;;;;;;;;-146.27;100.00;64033.13;5110552;27;19915;-49
2022/06/11 06:30:32;;;;;;;;;;;;;;;-146.27;100.00;64033.13;5110281;28;19911;-49
2022/06/11 06:32:58;;;;;;;;;;;;;;;-146.27;100.00;64033.13;5109963;28;19931;-47
2022/06/11 06:35:23;;;;;;;;;;;;;;;-146.27;100.00;64033.13;5110579;28;20372;-48
2022/06/11 06:37:49;;;;;;;;;;;;;;;-146.27;100.00;64033.13;5110029;28;20018;-48
2022/06/11 06:40:14;;;;;;;;;;;;;;;-146.27;100.00;64033.13;5110378;28;19918;-49
2022/06/11 06:42:39;;;;;;;;;;;;;;;-146.27;100.00;64033.13;5110322;28;19912;-49
2022/06/11 06:45:05;;;;;;;;;;;;;;;-146.27;100.00;64033.13;5108974;28;19923;-48
2022/06/11 06:47:31;;;;;;;;;;;;;;;-146.27;100.00;64033.13;5110254;28;19912;-48
2022/06/11 06:49:57;;;;;;;;;;;;;;;-146.27;100.00;64033.13;5110583;28;19934;-50
2022/06/11 06:52:22;;;;;;;;;;;;;;;-146.27;100.00;64033.13;5110111;28;20405;-51
2022/06/11 06:54:47;;;;;;;;;;;;;;;-146.27;100.00;64033.13;5110267;28;20314;-51
2022/06/11 06:57:13;;;;;;;;;;;;;;;-146.27;100.00;64033.13;5110027;28;20003;-51
2022/06/11 06:59:38;;;;;;;;;;;;;;;-146.27;100.00;64033.13;5109741;28;19916;-51
2022/06/11 07:02:03;;;;;;;;;;;;;;;-146.27;100.00;64033.13;5109992;28;19961;-51
2022/06/11 07:04:29;;;;;;;;;;;;;;;-146.27;100.00;64033.13;5110840;28;19912;-50
2022/06/11 07:06:54;;;;;;;;;;;;;;;-146.27;100.00;64033.13;5110800;28;20343;-49
2022/06/11 07:09:19;;;;;;;;;;;;;;;-146.27;100.00;64033.13;5110230;28;19912;-51
2022/06/11 07:11:45;;;;;;;;;;;;;;;-146.27;100.00;64033.13;5110127;28;19962;-51
2022/06/11 07:14:10;;;;;;;;;;;;;;;-146.27;100.00;64033.13;5110084;28;19914;-51
2022/06/11 07:16:38;;;;;;;;;;;;;;;-146.27;100.00;64033.13;5109961;28;19912;-52
2022/06/11 07:19:09;;;;;;;;;;;;;;;-146.27;100.00;64033.13;5110300;28;20398;-48
2022/06/11 07:21:37;;;;;;;;;;;;;;;-146.27;100.00;64033.13;5109650;28;19915;-48
2022/06/11 07:24:09;;;;;;;;;;;;;;;-146.27;100.00;64033.13;5110128;28;20330;-48
2022/06/11 07:26:36;;;;;;;;;;;;;;;-146.27;100.00;64033.13;5110138;28;20259;-49
2022/06/11 07:29:07;;;;;;;;;;;;;;;-146.27;100.00;64033.13;5109975;28;19911;-48
2022/06/11 07:31:32;;;;;;;;;;;;;;;-146.27;100.00;64033.13;5109726;28;20311;-49
2022/06/11 07:33:58;;;;;;;;;;;;;;;-146.27;100.00;64033.13;5109638;28;19924;-48
2022/06/11 07:36:25;;;;;;;;;;;;;;;-146.27;100.00;64033.13;5110183;28;19916;-48
2022/06/11 07:38:50;;;;;;;;;;;;;;;-146.27;100.00;64033.13;5110254;28;19912;-45
2022/06/11 07:41:16;;;;;;;;;;;;;;;-146.27;100.00;64033.13;5109882;28;19935;-44
2022/06/11 07:43:41;;;;;;;;;;;;;;;-146.27;100.00;64033.13;5110085;28;20080;-44
2022/06/11 07:46:06;;;;;;;;;;;;;;;-146.27;100.00;64033.13;5110359;28;19912;-47
2022/06/11 07:48:31;;;;;;;;;;;;;;;-146.27;100.00;64033.13;5108219;28;20317;-47
2022/06/11 07:50:57;;;;;;;;;;;;;;;-146.27;100.00;64033.13;5109756;28;19912;-48
2022/06/11 07:53:22;;;;;;;;;;;;;;;-146.27;100.00;64033.13;5109691;28;20004;-48
2022/06/11 07:55:50;;;;;;;;;;;;;;;-146.27;100.00;64033.13;5110021;28;20007;-46
2022/06/11 07:58:16;;;;;;;;;;;;;;;-146.27;100.00;64033.13;5109973;28;19924;-49
2022/06/11 08:00:44;;;;;;;;;;;;;;;-146.27;100.00;64033.13;5110068;28;19912;-49
2022/06/11 08:03:10;;;;;;;;;;;;;;;-146.27;100.00;64033.13;5109343;28;19916;-47
2022/06/11 08:05:36;;;;;;;;;;;;;;;-146.27;100.00;64033.13;5109698;28;19918;-50
2022/06/11 08:08:02;;;;;;;;;;;;;;;-146.27;100.00;64033.13;5109606;28;19912;-48
2022/06/11 08:10:28;;;;;;;;;;;;;;;-146.27;100.00;64033.13;5111378;28;20006;-46
2022/06/11 08:12:54;;;;;;;;;;;;;;;-146.27;100.00;64033.13;5113085;28;20049;-46
2022/06/11 08:15:19;;;;;;;;;;;;;;;-146.27;100.00;64033.13;5113384;28;19973;-48
2022/06/11 08:17:45;;;;;;;;;;;;;;;-146.27;100.00;64033.13;5113321;28;20056;-48
2022/06/11 08:20:15;;;;;;;;;;;;;;;-146.27;100.00;64033.13;5112946;28;19912;-47
2022/06/11 08:22:41;;;;;;;;;;;;;;;-146.27;100.00;64033.13;5113253;28;19911;-47
2022/06/11 08:25:06;;;;;;;;;;;;;;;-146.27;100.00;64033.13;5099291;28;19912;-46
2022/06/11 08:27:32;;;;;;;;;;;;;;;-146.27;100.00;64033.13;5092759;28;19912;-47
2022/06/11 08:29:57;;;;;;;;;;;;;;;-146.27;100.00;64033.13;5092631;28;20007;-47
2022/06/11 08:32:22;;;;;;;;;;;;;;;-146.27;100.00;64033.13;5092399;28;20014;-45
2022/06/11 08:34:47;;;;;;;;;;;;;;;-146.27;100.00;64033.13;5092521;28;19920;-47
2022/06/11 08:37:14;;;;;;;;;;;;;;;-146.27;100.00;64033.13;5092767;28;20089;-46
2022/06/11 08:39:39;;;;;;;;;;;;;;;-146.27;100.00;64033.13;5092451;28;19972;-47
2022/06/11 08:42:07;;;;;;;;;;;;;;;-146.27;100.00;64033.13;5091984;28;19988;-46
2022/06/11 08:44:35;;;;;;;;;;;;;;;-146.27;100.00;64033.13;5092303;28;19912;-45
2022/06/11 08:47:04;;;;;;;;;;;;;;;-146.27;100.00;64033.13;5091825;28;20240;-44
2022/06/11 08:49:46;;;;;;;;;;;;;;;-146.27;100.00;64033.13;5091936;28;20015;-48
2022/06/11 08:52:16;;;;;;;;;;;;;;;-146.27;100.00;64033.13;5091988;28;19983;-45
2022/06/11 08:54:46;;;;;;;;;;;;;;;-146.27;100.00;64033.13;5092151;28;20021;-48
2022/06/11 08:57:14;;;;;;;;;;;;;;;-146.27;100.00;64033.13;5092127;28;19934;-46
2022/06/11 08:59:48;;;;;;;;;;;;;;;-146.27;100.00;64033.13;5092288;28;19923;-48
2022/06/11 09:02:33;;;;;;;;;;;;;;;-146.27;100.00;64033.13;5091942;28;19916;-44
2022/06/11 09:05:14;;;;;;;;;;;;;;;-146.27;100.00;64033.13;5070548;28;19916;-46
2022/06/11 09:07:48;;;;;;;;;;;;;;;-146.27;100.00;64033.13;5092098;28;19965;-49
2022/06/11 09:10:16;;;;;;;;;;;;;;;-146.27;100.00;64033.13;5091939;28;19912;-43
2022/06/11 09:13:07;;;;;;;;;;;;;;;-146.27;100.00;64033.13;5091580;28;20006;-49
2022/06/11 09:15:39;;;;;;;;;;;;;;;-146.27;100.00;64033.13;5091249;28;20018;-51
2022/06/11 09:18:10;;;;;;;;;;;;;;;-146.27;100.00;64033.13;5091073;28;19961;-47
2022/06/11 09:20:35;;;;;;;;;;;;;;;-146.27;100.00;64033.13;5091141;28;19912;-48
2022/06/11 09:23:03;;;;;;;;;;;;;;;-146.27;100.00;64033.13;5093049;28;20295;-46
2022/06/11 09:25:29;;;;;;;;;;;;;;;-146.27;100.00;64033.13;5094037;28;19935;-47
2022/06/11 09:27:54;;;;;;;;;;;;;;;-146.27;100.00;64033.13;5104670;28;19916;-47
2022/06/11 09:30:24;;;;;;;;;;;;;;;-146.27;100.00;64033.13;5100766;28;20364;-47
2022/06/11 09:32:58;;;;;;;;;;;;;;;-146.27;100.00;64033.13;5097069;28;19927;-46
2022/06/11 09:35:29;;;;;;;;;;;;;;;-146.27;100.00;64033.13;5107928;28;19920;-48
2022/06/11 09:38:06;;;;;;;;;;;;;;;-146.27;100.00;64033.13;5097827;28;20010;-49
2022/06/11 09:40:38;;;;;;;;;;;;;;;-146.27;100.00;64033.13;5099486;28;19961;-47
2022/06/11 09:43:04;;;;;;;;;;;;;;;-146.27;100.00;64033.13;5107067;28;19911;-50
2022/06/11 09:45:33;;;;;;;;;;;;;;;-146.27;100.00;64033.13;5094602;28;19911;-49
2022/06/11 09:48:14;;;;;;;;;;;;;;;-146.27;100.00;64033.13;5111595;28;20059;-46
2022/06/11 09:50:39;;;;;;;;;;;;;;;-146.27;100.00;64033.13;5111741;28;19973;-47
2022/06/11 09:53:17;;;;;;;;;;;;;;;-146.27;100.00;64033.13;5111392;28;19978;-47
2022/06/11 09:55:45;;;;;;;;;;;;;;;-146.27;100.00;64033.13;5111401;28;19920;-47
2022/06/11 09:58:20;;;;;;;;;;;;;;;-146.27;100.00;64033.13;5111326;28;19922;-48
2022/06/11 10:00:48;;;;;;;;;;;;;;;-146.27;100.00;64033.13;5111228;28;19919;-48
2022/06/11 10:03:28;;;;;;;;;;;;;;;-146.27;100.00;64033.13;5111398;28;20276;-49
2022/06/11 10:05:58;;;;;;;;;;;;;;;-146.27;100.00;64033.13;5112019;28;20007;-38
2022/06/11 10:08:43;;;;;;;;;;;;;;;-146.27;100.00;64033.13;5112107;28;19919;-47
2022/06/11 10:11:34;;;;;;;;;;;;;;;-146.27;100.00;64033.13;5111392;28;19969;-47
2022/06/11 10:14:30;;;;;;;;;;;;;;;-146.27;100.00;64033.13;5108789;28;20335;-48
2022/06/11 10:17:12;;;;;;;;;;;;;;;-146.27;100.00;64033.13;5110609;28;19915;-50
2022/06/11 10:19:40;;;;;;;;;;;;;;;-146.27;100.00;64033.13;5110790;28;20292;-47
2022/06/11 10:22:25;;;;;;;;;;;;;;;-146.27;100.00;64033.13;5094785;28;20009;-47
2022/06/11 10:25:04;;;;;;;;;;;;;;;-146.27;100.00;64033.13;5086461;28;20037;-48
2022/06/11 10:27:31;;;;;;;;;;;;;;;-146.27;100.00;64033.13;5090770;28;20406;-48
2022/06/11 10:30:02;;;;;;;;;;;;;;;-146.27;100.00;64033.13;5090218;28;19916;-49
2022/06/11 10:32:30;;;;;;;;;;;;;;;-146.27;100.00;64033.13;5089139;28;20003;-52
2022/06/11 10:35:03;;;;;;;;;;;;;;;-146.27;100.00;64033.13;5090117;28;19920;-48
2022/06/11 10:37:37;;;;;;;;;;;;;;;-146.27;100.00;64033.13;5090456;28;20443;-49
2022/06/11 10:40:02;;;;;;;;;;;;;;;-146.27;100.00;64033.13;5090425;28;19961;-51
2022/06/11 10:42:35;;;;;;;;;;;;;;;-146.27;100.00;64033.13;5089688;28;19920;-51
2022/06/11 10:45:00;;;;;;;;;;;;;;;-146.27;100.00;64033.13;5089830;28;19969;-49
2022/06/11 10:47:41;;;;;;;;;;;;;;;-146.27;100.00;64033.13;5089897;28;19919;-51
2022/06/11 10:50:09;;;;;;;;;;;;;;;-146.27;100.00;64033.13;5090169;28;19916;-49
2022/06/11 10:52:34;;;;;;;;;;;;;;;-146.27;100.00;64033.13;5090021;28;19912;-50
2022/06/11 10:55:00;;;;;;;;;;;;;;;-146.27;100.00;64033.13;5089487;28;20352;-50
2022/06/11 10:57:27;;;;;;;;;;;;;;;-146.27;100.00;64033.13;5089721;28;19919;-52
2022/06/11 11:00:04;;;;;;;;;;;;;;;-146.27;100.00;64033.13;5090190;28;19912;-49
2022/06/11 11:02:50;;;;;;;;;;;;;;;-146.27;100.00;64033.13;5089979;28;20406;-51
2022/06/11 11:05:18;;;;;;;;;;;;;;;-146.27;100.00;64033.13;5084988;28;20065;-50
2022/06/11 11:07:52;;;;;;;;;;;;;;;-146.27;100.00;64033.13;5092267;28;19922;-49
2022/06/11 11:10:36;;;;;;;;;;;;;;;-146.27;100.00;64033.13;5096197;28;19964;-50
2022/06/11 11:13:06;;;;;;;;;;;;;;;-146.27;100.00;64033.13;5091944;28;19923;-49
2022/06/11 11:15:43;;;;;;;;;;;;;;;-146.27;100.00;64033.13;5095164;28;19921;-50
2022/06/11 11:18:20;;;;;;;;;;;;;;;-146.27;100.00;64033.13;5089998;28;20288;-51
2022/06/11 11:20:48;;;;;;;;;;;;;;;-146.27;100.00;64033.13;5091284;28;20387;-50
2022/06/11 11:23:13;;;;;;;;;;;;;;;-146.27;100.00;64033.13;5098809;28;20431;-53
2022/06/11 11:25:57;;;;;;;;;;;;;;;-146.27;100.00;64033.13;5091428;28;20019;-52
2022/06/11 11:28:27;;;;;;;;;;;;;;;-146.27;100.00;64033.13;5089333;28;19926;-51
2022/06/11 11:30:58;;;;;;;;;;;;;;;-146.27;100.00;64033.13;5089767;28;19913;-52
2022/06/11 11:33:25;;;;;;;;;;;;;;;-146.27;100.00;64033.13;5089483;28;19949;-51
2022/06/11 11:35:59;;;;;;;;;;;;;;;-146.27;100.00;64033.13;5089485;28;19924;-52
2022/06/11 11:38:24;;;;;;;;;;;;;;;-146.27;100.00;64033.13;5102762;28;19938;-52
2022/06/11 11:40:53;;;;;;;;;;;;;;;-146.27;100.00;64033.13;5109949;28;20343;-50
2022/06/11 11:43:18;;;;;;;;;;;;;;;-146.27;100.00;64033.13;5109881;28;19911;-51
2022/06/11 11:45:56;;;;;;;;;;;;;;;-146.27;100.00;64033.13;5113732;28;19938;-51
2022/06/11 11:48:35;;;;;;;;;;;;;;;-146.27;100.00;64033.13;5113640;28;19922;-52
2022/06/11 11:51:33;;;;;;;;;;;;;;;-146.27;100.00;64033.13;5114297;28;19919;-53
2022/06/11 11:54:01;;;;;;;;;;;;;;;-146.27;100.00;64033.13;5101785;28;20024;-51
2022/06/11 11:56:26;;;;;;;;;;;;;;;-146.27;100.00;64033.13;5114634;28;19988;-52
2022/06/11 11:58:54;;;;;;;;;;;;;;;-146.27;100.00;64033.13;5094371;28;20327;-47
2022/06/11 12:01:21;;;;;;;;;;;;;;;-146.27;100.00;64033.13;5094160;28;20429;-52
2022/06/11 12:04:06;;;;;;;;;;;;;;;-146.27;100.00;64033.13;5093347;28;20084;-52
2022/06/11 12:06:35;;;;;;;;;;;;;;;-146.27;100.00;64033.13;5073249;28;19920;-51
2022/06/11 12:09:02;;;;;;;;;;;;;;;-146.27;100.00;64033.13;5085070;28;19916;-51
2022/06/11 12:11:27;;;;;;;;;;;;;;;-146.27;100.00;64033.13;5093587;28;20398;-51
2022/06/11 12:14:05;;;;;;;;;;;;;;;-146.27;100.00;64033.13;5092767;28;20010;-53
2022/06/11 12:16:39;;;;;;;;;;;;;;;-146.27;100.00;64033.13;5092958;28;19974;-36
2022/06/11 12:19:10;;;;;;;;;;;;;;;-146.27;100.00;64033.13;5092867;28;20379;-39
2022/06/11 12:21:39;;;;;;;;;;;;;;;-146.27;100.00;64033.13;5104426;28;20034;-38
2022/06/11 12:24:08;;;;;;;;;;;;;;;-146.27;100.00;64033.13;5097525;28;19959;-39
2022/06/11 12:26:39;;;;;;;;;;;;;;;-146.27;100.00;64033.13;5091918;28;20003;-38
2022/06/11 12:29:05;;;;;;;;;;;;;;;-146.27;100.00;64033.13;5091962;28;19912;-39
2022/06/11 12:31:31;;;;;;;;;;;;;;;-146.27;100.00;64033.13;5091707;28;20364;-36